Terminal Aerodrome Forecast
Issued by NWS

Home | Current Version | Previous Version | Text Only | Print | Product List | Glossary On
Versions: 1 2 3 4 5 6 7 8 9 10 11 12
000
FTUS45 KTWC 242330
TAFOLS
TAF
KOLS 242330Z 2500/2524 22018G28KT P6SM SKC
     FM250200 21011G17KT P6SM SKC
     FM250400 17009KT P6SM SKC
     FM251500 19013G22KT P6SM SKC
     FM252000 23020G30KT P6SM SKC=

USA.gov is the U.S. government's official web portal to all federal, state and local government web resources and services.